sensor_id;sensor_type;location;lat;lon;timestamp;pressure;altitude;pressure_sealevel;temperature;humidity
54248;BME280;40161;39.768;2.722;2024-03-06T00:02:12;101976.56;;;7.80;100.00
54248;BME280;40161;39.768;2.722;2024-03-06T00:04:37;101976.91;;;7.78;100.00
54248;BME280;40161;39.768;2.722;2024-03-06T00:07:04;101976.22;;;7.64;100.00
54248;BME280;40161;39.768;2.722;2024-03-06T00:09:29;101938.75;;;7.25;100.00
54248;BME280;40161;39.768;2.722;2024-03-06T00:11:56;101977.47;;;7.58;100.00
54248;BME280;40161;39.768;2.722;2024-03-06T00:14:22;101976.78;;;7.92;100.00
54248;BME280;40161;39.768;2.722;2024-03-06T00:16:49;101937.19;;;7.81;100.00
54248;BME280;40161;39.768;2.722;2024-03-06T00:19:17;101957.97;;;7.99;100.00
54248;BME280;40161;39.768;2.722;2024-03-06T00:21:43;101983.38;;;8.00;100.00
54248;BME280;40161;39.768;2.722;2024-03-06T00:24:14;101977.06;;;7.91;100.00
54248;BME280;40161;39.768;2.722;2024-03-06T00:26:41;101961.63;;;7.86;100.00
54248;BME280;40161;39.768;2.722;2024-03-06T00:29:06;101976.75;;;7.83;100.00
54248;BME280;40161;39.768;2.722;2024-03-06T00:31:32;101960.38;;;7.52;100.00
54248;BME280;40161;39.768;2.722;2024-03-06T00:33:57;101893.84;;;7.08;100.00
54248;BME280;40161;39.768;2.722;2024-03-06T00:36:23;101953.69;;;7.27;100.00
54248;BME280;40161;39.768;2.722;2024-03-06T00:38:49;101954.94;;;7.21;100.00
54248;BME280;40161;39.768;2.722;2024-03-06T00:41:14;101991.16;;;7.35;100.00
54248;BME280;40161;39.768;2.722;2024-03-06T00:43:40;101995.03;;;7.43;100.00
54248;BME280;40161;39.768;2.722;2024-03-06T00:46:05;101988.66;;;7.48;100.00
54248;BME280;40161;39.768;2.722;2024-03-06T00:48:31;101959.97;;;7.28;100.00
54248;BME280;40161;39.768;2.722;2024-03-06T00:50:57;101996.59;;;7.67;100.00
54248;BME280;40161;39.768;2.722;2024-03-06T00:53:22;101970.28;;;7.40;100.00
54248;BME280;40161;39.768;2.722;2024-03-06T00:55:48;101972.75;;;7.19;100.00
54248;BME280;40161;39.768;2.722;2024-03-06T00:58:13;101985.13;;;7.47;100.00
54248;BME280;40161;39.768;2.722;2024-03-06T01:00:39;101980.84;;;7.64;100.00
54248;BME280;40161;39.768;2.722;2024-03-06T01:03:05;101969.56;;;7.56;100.00
54248;BME280;40161;39.768;2.722;2024-03-06T01:05:31;101982.19;;;7.75;100.00
54248;BME280;40161;39.768;2.722;2024-03-06T01:07:56;101954.00;;;7.26;100.00
54248;BME280;40161;39.768;2.722;2024-03-06T01:10:24;101974.88;;;6.77;100.00
54248;BME280;40161;39.768;2.722;2024-03-06T01:12:50;101981.59;;;6.93;100.00
54248;BME280;40161;39.768;2.722;2024-03-06T01:15:16;101958.53;;;6.99;100.00
54248;BME280;40161;39.768;2.722;2024-03-06T01:17:42;101988.75;;;7.11;100.00
54248;BME280;40161;39.768;2.722;2024-03-06T01:20:08;101914.94;;;6.63;100.00
54248;BME280;40161;39.768;2.722;2024-03-06T01:22:34;101992.09;;;7.31;100.00
54248;BME280;40161;39.768;2.722;2024-03-06T01:25:00;102004.28;;;7.25;100.00
54248;BME280;40161;39.768;2.722;2024-03-06T01:27:29;101987.28;;;7.05;100.00
54248;BME280;40161;39.768;2.722;2024-03-06T01:29:54;101969.25;;;6.96;100.00
54248;BME280;40161;39.768;2.722;2024-03-06T01:32:20;101961.31;;;6.85;100.00
54248;BME280;40161;39.768;2.722;2024-03-06T01:34:46;101923.91;;;6.63;100.00
54248;BME280;40161;39.768;2.722;2024-03-06T01:37:11;101976.94;;;7.16;100.00
54248;BME280;40161;39.768;2.722;2024-03-06T01:39:37;101942.25;;;7.17;100.00
54248;BME280;40161;39.768;2.722;2024-03-06T01:42:03;101937.03;;;7.06;100.00
54248;BME280;40161;39.768;2.722;2024-03-06T01:44:29;101947.44;;;7.27;100.00
54248;BME280;40161;39.768;2.722;2024-03-06T01:46:54;101957.22;;;7.28;100.00
54248;BME280;40161;39.768;2.722;2024-03-06T01:49:21;101967.09;;;7.15;100.00
54248;BME280;40161;39.768;2.722;2024-03-06T01:51:55;101946.88;;;6.85;100.00
54248;BME280;40161;39.768;2.722;2024-03-06T01:54:23;101954.81;;;6.95;100.00
54248;BME280;40161;39.768;2.722;2024-03-06T01:56:50;101949.38;;;7.04;100.00
54248;BME280;40161;39.768;2.722;2024-03-06T01:59:17;101946.19;;;7.33;100.00
54248;BME280;40161;39.768;2.722;2024-03-06T02:01:45;101911.69;;;7.06;100.00
54248;BME280;40161;39.768;2.722;2024-03-06T02:04:12;101943.13;;;7.03;100.00
54248;BME280;40161;39.768;2.722;2024-03-06T02:06:39;101881.91;;;6.64;100.00
54248;BME280;40161;39.768;2.722;2024-03-06T02:09:05;101931.72;;;6.79;100.00
54248;BME280;40161;39.768;2.722;2024-03-06T02:11:32;101914.75;;;6.82;100.00
54248;BME280;40161;39.768;2.722;2024-03-06T02:13:58;101908.03;;;6.88;100.00
54248;BME280;40161;39.768;2.722;2024-03-06T02:16:23;101922.84;;;6.96;100.00
54248;BME280;40161;39.768;2.722;2024-03-06T02:18:55;101930.50;;;6.85;100.00
54248;BME280;40161;39.768;2.722;2024-03-06T02:21:23;101940.03;;;6.74;100.00
54248;BME280;40161;39.768;2.722;2024-03-06T02:23:49;101928.88;;;6.61;100.00
54248;BME280;40161;39.768;2.722;2024-03-06T02:26:19;101910.81;;;6.74;100.00
54248;BME280;40161;39.768;2.722;2024-03-06T02:28:52;101920.16;;;7.04;100.00
54248;BME280;40161;39.768;2.722;2024-03-06T02:31:18;101924.47;;;6.97;100.00
54248;BME280;40161;39.768;2.722;2024-03-06T02:33:45;101933.78;;;6.73;100.00
54248;BME280;40161;39.768;2.722;2024-03-06T02:36:11;101901.28;;;6.40;100.00
54248;BME280;40161;39.768;2.722;2024-03-06T02:38:37;101911.53;;;6.57;100.00
54248;BME280;40161;39.768;2.722;2024-03-06T02:41:02;101910.69;;;6.57;100.00
54248;BME280;40161;39.768;2.722;2024-03-06T02:43:28;101916.16;;;6.79;100.00
54248;BME280;40161;39.768;2.722;2024-03-06T02:45:54;101924.53;;;6.83;100.00
54248;BME280;40161;39.768;2.722;2024-03-06T02:48:19;101904.09;;;6.72;100.00
54248;BME280;40161;39.768;2.722;2024-03-06T02:50:45;101843.41;;;6.44;100.00
54248;BME280;40161;39.768;2.722;2024-03-06T02:53:11;101916.28;;;6.97;100.00
54248;BME280;40161;39.768;2.722;2024-03-06T02:55:36;101892.66;;;6.92;100.00
54248;BME280;40161;39.768;2.722;2024-03-06T02:58:02;101892.28;;;6.85;100.00
54248;BME280;40161;39.768;2.722;2024-03-06T03:00:28;101886.91;;;6.71;100.00
54248;BME280;40161;39.768;2.722;2024-03-06T03:02:54;101911.91;;;6.64;100.00
54248;BME280;40161;39.768;2.722;2024-03-06T03:05:19;101854.69;;;6.28;100.00
54248;BME280;40161;39.768;2.722;2024-03-06T03:07:45;101879.34;;;6.46;100.00
54248;BME280;40161;39.768;2.722;2024-03-06T03:10:10;101883.16;;;6.67;100.00
54248;BME280;40161;39.768;2.722;2024-03-06T03:12:38;101899.78;;;6.79;100.00
54248;BME280;40161;39.768;2.722;2024-03-06T03:15:04;101890.94;;;6.51;100.00
54248;BME280;40161;39.768;2.722;2024-03-06T03:17:30;101838.94;;;6.25;100.00
54248;BME280;40161;39.768;2.722;2024-03-06T03:19:56;101899.63;;;6.76;100.00
54248;BME280;40161;39.768;2.722;2024-03-06T03:22:21;101894.91;;;6.68;100.00
54248;BME280;40161;39.768;2.722;2024-03-06T03:24:47;101843.31;;;6.12;100.00
54248;BME280;40161;39.768;2.722;2024-03-06T03:27:13;101899.34;;;6.63;100.00
54248;BME280;40161;39.768;2.722;2024-03-06T03:29:39;101907.06;;;6.61;100.00
54248;BME280;40161;39.768;2.722;2024-03-06T03:32:05;101879.09;;;6.56;100.00
54248;BME280;40161;39.768;2.722;2024-03-06T03:34:31;101881.25;;;6.23;100.00
54248;BME280;40161;39.768;2.722;2024-03-06T03:36:56;101901.97;;;6.24;100.00
54248;BME280;40161;39.768;2.722;2024-03-06T03:39:22;101877.09;;;6.03;100.00
54248;BME280;40161;39.768;2.722;2024-03-06T03:41:50;101842.50;;;6.12;100.00
54248;BME280;40161;39.768;2.722;2024-03-06T03:44:17;101882.31;;;6.58;100.00
54248;BME280;40161;39.768;2.722;2024-03-06T03:46:44;101892.22;;;6.76;100.00
54248;BME280;40161;39.768;2.722;2024-03-06T03:49:11;101889.03;;;6.52;100.00
54248;BME280;40161;39.768;2.722;2024-03-06T03:51:40;101899.03;;;6.42;100.00
54248;BME280;40161;39.768;2.722;2024-03-06T03:54:06;101846.69;;;6.09;100.00
54248;BME280;40161;39.768;2.722;2024-03-06T03:56:32;101859.44;;;6.45;100.00
54248;BME280;40161;39.768;2.722;2024-03-06T03:58:58;101858.88;;;6.57;100.00
54248;BME280;40161;39.768;2.722;2024-03-06T04:01:27;101865.97;;;6.58;100.00
54248;BME280;40161;39.768;2.722;2024-03-06T04:03:53;101871.16;;;6.68;100.00
54248;BME280;40161;39.768;2.722;2024-03-06T04:06:19;101881.38;;;6.62;100.00
54248;BME280;40161;39.768;2.722;2024-03-06T04:08:44;101875.38;;;6.52;100.00
54248;BME280;40161;39.768;2.722;2024-03-06T04:11:10;101869.22;;;6.46;100.00
54248;BME280;40161;39.768;2.722;2024-03-06T04:13:38;101891.25;;;6.72;100.00
54248;BME280;40161;39.768;2.722;2024-03-06T04:16:05;101888.34;;;6.69;100.00
54248;BME280;40161;39.768;2.722;2024-03-06T04:18:31;101879.66;;;6.66;100.00
54248;BME280;40161;39.768;2.722;2024-03-06T04:21:06;101849.03;;;6.02;100.00
54248;BME280;40161;39.768;2.722;2024-03-06T04:23:33;101880.38;;;6.13;100.00
54248;BME280;40161;39.768;2.722;2024-03-06T04:25:59;101861.41;;;6.08;100.00
54248;BME280;40161;39.768;2.722;2024-03-06T04:28:25;101840.50;;;6.17;100.00
54248;BME280;40161;39.768;2.722;2024-03-06T04:30:51;101890.38;;;6.40;100.00
54248;BME280;40161;39.768;2.722;2024-03-06T04:33:16;101827.56;;;5.73;100.00
54248;BME280;40161;39.768;2.722;2024-03-06T04:35:42;101886.69;;;6.23;100.00
54248;BME280;40161;39.768;2.722;2024-03-06T04:38:08;101829.59;;;6.17;100.00
54248;BME280;40161;39.768;2.722;2024-03-06T04:40:33;101895.66;;;6.59;100.00
54248;BME280;40161;39.768;2.722;2024-03-06T04:43:00;101865.44;;;6.11;100.00
54248;BME280;40161;39.768;2.722;2024-03-06T04:45:26;101799.91;;;5.80;100.00
54248;BME280;40161;39.768;2.722;2024-03-06T04:47:51;101884.50;;;6.47;100.00
54248;BME280;40161;39.768;2.722;2024-03-06T04:50:17;101853.75;;;6.33;100.00
54248;BME280;40161;39.768;2.722;2024-03-06T04:52:43;101882.19;;;6.18;100.00
54248;BME280;40161;39.768;2.722;2024-03-06T04:55:10;101835.09;;;5.90;100.00
54248;BME280;40161;39.768;2.722;2024-03-06T04:57:37;101843.81;;;6.14;100.00
54248;BME280;40161;39.768;2.722;2024-03-06T05:00:03;101859.66;;;6.12;100.00
54248;BME280;40161;39.768;2.722;2024-03-06T05:02:32;101909.16;;;6.20;100.00
54248;BME280;40161;39.768;2.722;2024-03-06T05:05:02;101865.53;;;6.20;100.00
54248;BME280;40161;39.768;2.722;2024-03-06T05:07:29;101866.31;;;6.20;100.00
54248;BME280;40161;39.768;2.722;2024-03-06T05:09:56;101899.19;;;6.37;100.00
54248;BME280;40161;39.768;2.722;2024-03-06T05:12:23;101859.09;;;5.88;100.00
54248;BME280;40161;39.768;2.722;2024-03-06T05:14:49;101837.25;;;5.93;100.00
54248;BME280;40161;39.768;2.722;2024-03-06T05:17:15;101861.91;;;6.33;100.00
54248;BME280;40161;39.768;2.722;2024-03-06T05:19:40;101896.88;;;6.53;100.00
54248;BME280;40161;39.768;2.722;2024-03-06T05:22:06;101883.28;;;6.17;100.00
54248;BME280;40161;39.768;2.722;2024-03-06T05:24:31;101890.97;;;6.15;100.00
54248;BME280;40161;39.768;2.722;2024-03-06T05:26:57;101897.75;;;6.40;100.00
54248;BME280;40161;39.768;2.722;2024-03-06T05:29:23;101872.84;;;5.83;100.00
54248;BME280;40161;39.768;2.722;2024-03-06T05:31:49;101884.75;;;6.01;100.00
54248;BME280;40161;39.768;2.722;2024-03-06T05:34:14;101903.22;;;6.04;100.00
54248;BME280;40161;39.768;2.722;2024-03-06T05:36:40;101882.50;;;6.16;100.00
54248;BME280;40161;39.768;2.722;2024-03-06T05:39:05;101894.25;;;6.26;100.00
54248;BME280;40161;39.768;2.722;2024-03-06T05:41:38;101870.16;;;6.19;100.00
54248;BME280;40161;39.768;2.722;2024-03-06T05:44:05;101844.81;;;6.18;100.00
54248;BME280;40161;39.768;2.722;2024-03-06T05:46:31;101890.63;;;6.53;100.00
54248;BME280;40161;39.768;2.722;2024-03-06T05:48:56;101862.63;;;6.38;100.00
54248;BME280;40161;39.768;2.722;2024-03-06T05:51:22;101855.75;;;6.41;100.00
54248;BME280;40161;39.768;2.722;2024-03-06T05:53:47;101859.78;;;6.44;100.00
54248;BME280;40161;39.768;2.722;2024-03-06T05:56:13;101853.75;;;6.33;100.00
54248;BME280;40161;39.768;2.722;2024-03-06T05:58:39;101876.53;;;6.14;100.00
54248;BME280;40161;39.768;2.722;2024-03-06T06:01:04;101892.88;;;6.51;100.00
54248;BME280;40161;39.768;2.722;2024-03-06T06:03:30;101882.25;;;6.49;100.00
54248;BME280;40161;39.768;2.722;2024-03-06T06:05:56;101869.16;;;6.15;100.00
54248;BME280;40161;39.768;2.722;2024-03-06T06:08:23;101877.75;;;6.08;100.00
54248;BME280;40161;39.768;2.722;2024-03-06T06:10:49;101859.84;;;5.80;100.00
54248;BME280;40161;39.768;2.722;2024-03-06T06:13:17;101863.38;;;5.94;100.00
54248;BME280;40161;39.768;2.722;2024-03-06T06:15:43;101878.66;;;6.17;100.00
54248;BME280;40161;39.768;2.722;2024-03-06T06:18:09;101896.00;;;6.22;100.00
54248;BME280;40161;39.768;2.722;2024-03-06T06:20:35;101898.25;;;6.20;100.00
54248;BME280;40161;39.768;2.722;2024-03-06T06:23:01;101867.09;;;5.98;100.00
54248;BME280;40161;39.768;2.722;2024-03-06T06:25:26;101874.94;;;6.13;100.00
54248;BME280;40161;39.768;2.722;2024-03-06T06:27:52;101889.22;;;6.19;100.00
54248;BME280;40161;39.768;2.722;2024-03-06T06:30:18;101898.44;;;6.23;100.00
54248;BME280;40161;39.768;2.722;2024-03-06T06:32:44;101912.63;;;6.34;100.00
54248;BME280;40161;39.768;2.722;2024-03-06T06:35:10;101911.00;;;6.33;100.00
54248;BME280;40161;39.768;2.722;2024-03-06T06:37:37;101909.28;;;6.37;100.00
54248;BME280;40161;39.768;2.722;2024-03-06T06:40:03;101914.41;;;6.38;100.00
54248;BME280;40161;39.768;2.722;2024-03-06T06:42:35;101885.78;;;6.27;100.00
54248;BME280;40161;39.768;2.722;2024-03-06T06:45:01;101896.88;;;6.31;100.00
54248;BME280;40161;39.768;2.722;2024-03-06T06:47:28;101899.00;;;6.34;100.00
54248;BME280;40161;39.768;2.722;2024-03-06T06:49:53;101929.03;;;6.42;100.00
54248;BME280;40161;39.768;2.722;2024-03-06T06:52:19;101931.19;;;6.32;100.00
54248;BME280;40161;39.768;2.722;2024-03-06T06:54:45;101939.16;;;6.42;100.00
54248;BME280;40161;39.768;2.722;2024-03-06T06:57:11;101922.59;;;6.38;100.00
54248;BME280;40161;39.768;2.722;2024-03-06T06:59:36;101914.75;;;6.37;100.00
54248;BME280;40161;39.768;2.722;2024-03-06T07:02:02;101928.81;;;6.53;100.00
54248;BME280;40161;39.768;2.722;2024-03-06T07:04:28;101911.78;;;6.47;100.00
54248;BME280;40161;39.768;2.722;2024-03-06T07:06:54;101947.56;;;6.68;100.00
54248;BME280;40161;39.768;2.722;2024-03-06T07:09:20;101911.00;;;6.33;100.00
54248;BME280;40161;39.768;2.722;2024-03-06T07:11:45;101948.94;;;6.43;100.00
54248;BME280;40161;39.768;2.722;2024-03-06T07:14:14;101946.53;;;6.41;100.00
54248;BME280;40161;39.768;2.722;2024-03-06T07:16:43;101963.84;;;6.59;100.00
54248;BME280;40161;39.768;2.722;2024-03-06T07:19:09;101946.91;;;6.49;100.00
54248;BME280;40161;39.768;2.722;2024-03-06T07:21:35;101972.03;;;6.82;100.00
54248;BME280;40161;39.768;2.722;2024-03-06T07:24:01;101962.34;;;6.53;100.00
54248;BME280;40161;39.768;2.722;2024-03-06T07:26:27;101950.84;;;6.20;100.00
54248;BME280;40161;39.768;2.722;2024-03-06T07:28:55;101981.59;;;6.34;100.00
54248;BME280;40161;39.768;2.722;2024-03-06T07:31:21;101954.03;;;6.22;100.00
54248;BME280;40161;39.768;2.722;2024-03-06T07:33:46;101957.31;;;6.47;100.00
54248;BME280;40161;39.768;2.722;2024-03-06T07:36:12;101978.03;;;6.70;100.00
54248;BME280;40161;39.768;2.722;2024-03-06T07:38:38;101967.63;;;6.72;100.00
54248;BME280;40161;39.768;2.722;2024-03-06T07:41:03;101972.97;;;6.77;100.00
54248;BME280;40161;39.768;2.722;2024-03-06T07:43:29;101969.94;;;6.79;100.00
54248;BME280;40161;39.768;2.722;2024-03-06T07:45:54;101986.78;;;6.81;100.00
54248;BME280;40161;39.768;2.722;2024-03-06T07:48:20;101978.22;;;6.74;100.00
54248;BME280;40161;39.768;2.722;2024-03-06T07:50:46;101938.06;;;6.65;100.00
54248;BME280;40161;39.768;2.722;2024-03-06T07:53:12;101942.66;;;6.79;100.00
54248;BME280;40161;39.768;2.722;2024-03-06T07:55:37;101965.06;;;6.98;100.00
54248;BME280;40161;39.768;2.722;2024-03-06T07:58:04;101964.22;;;6.89;100.00
54248;BME280;40161;39.768;2.722;2024-03-06T08:00:30;101935.06;;;6.53;100.00
54248;BME280;40161;39.768;2.722;2024-03-06T08:02:56;101962.41;;;6.84;100.00
54248;BME280;40161;39.768;2.722;2024-03-06T08:05:22;101945.59;;;6.91;100.00
54248;BME280;40161;39.768;2.722;2024-03-06T08:07:48;101920.31;;;6.77;100.00
54248;BME280;40161;39.768;2.722;2024-03-06T08:10:14;101968.75;;;7.16;100.00
54248;BME280;40161;39.768;2.722;2024-03-06T08:12:44;101951.34;;;7.12;100.00
54248;BME280;40161;39.768;2.722;2024-03-06T08:15:12;101940.03;;;6.96;100.00
54248;BME280;40161;39.768;2.722;2024-03-06T08:17:39;101960.31;;;7.04;100.00
54248;BME280;40161;39.768;2.722;2024-03-06T08:20:07;101952.91;;;7.27;100.00
54248;BME280;40161;39.768;2.722;2024-03-06T08:22:43;101944.44;;;7.37;100.00
54248;BME280;40161;39.768;2.722;2024-03-06T08:25:10;101946.78;;;7.61;100.00
54248;BME280;40161;39.768;2.722;2024-03-06T08:27:37;101958.09;;;7.85;100.00
54248;BME280;40161;39.768;2.722;2024-03-06T08:30:03;101949.44;;;7.92;100.00
54248;BME280;40161;39.768;2.722;2024-03-06T08:32:33;101966.50;;;8.15;100.00
54248;BME280;40161;39.768;2.722;2024-03-06T08:35:08;101952.88;;;8.24;100.00
54248;BME280;40161;39.768;2.722;2024-03-06T08:37:37;101950.63;;;8.35;100.00
54248;BME280;40161;39.768;2.722;2024-03-06T08:40:03;101955.81;;;8.53;100.00
54248;BME280;40161;39.768;2.722;2024-03-06T08:42:29;101964.81;;;8.71;100.00
54248;BME280;40161;39.768;2.722;2024-03-06T08:44:54;101953.41;;;8.78;100.00
54248;BME280;40161;39.768;2.722;2024-03-06T08:47:20;101943.72;;;8.89;100.00
54248;BME280;40161;39.768;2.722;2024-03-06T08:49:46;101932.09;;;8.92;100.00
54248;BME280;40161;39.768;2.722;2024-03-06T08:52:13;101946.72;;;9.14;100.00
54248;BME280;40161;39.768;2.722;2024-03-06T08:54:40;101936.06;;;9.21;100.00
54248;BME280;40161;39.768;2.722;2024-03-06T08:57:06;101941.31;;;9.43;100.00
54248;BME280;40161;39.768;2.722;2024-03-06T08:59:36;101932.44;;;9.46;100.00
54248;BME280;40161;39.768;2.722;2024-03-06T09:02:13;101954.66;;;9.83;100.00
54248;BME280;40161;39.768;2.722;2024-03-06T09:04:43;101888.88;;;9.54;100.00
54248;BME280;40161;39.768;2.722;2024-03-06T09:07:09;101932.81;;;9.95;100.00
54248;BME280;40161;39.768;2.722;2024-03-06T09:09:35;101943.19;;;10.11;100.00
54248;BME280;40161;39.768;2.722;2024-03-06T09:12:03;101960.84;;;10.31;100.00
54248;BME280;40161;39.768;2.722;2024-03-06T09:14:34;101964.13;;;10.45;100.00
54248;BME280;40161;39.768;2.722;2024-03-06T09:17:00;101962.78;;;10.51;100.00
54248;BME280;40161;39.768;2.722;2024-03-06T09:19:26;101959.75;;;10.65;100.00
54248;BME280;40161;39.768;2.722;2024-03-06T09:21:52;101954.19;;;10.74;100.00
54248;BME280;40161;39.768;2.722;2024-03-06T09:24:19;101922.13;;;10.65;100.00
54248;BME280;40161;39.768;2.722;2024-03-06T09:26:45;101898.44;;;10.61;99.61
54248;BME280;40161;39.768;2.722;2024-03-06T09:29:11;101935.84;;;10.99;98.90
54248;BME280;40161;39.768;2.722;2024-03-06T09:31:36;101916.16;;;10.97;96.65
54248;BME280;40161;39.768;2.722;2024-03-06T09:34:02;101968.00;;;11.44;94.38
54248;BME280;40161;39.768;2.722;2024-03-06T09:36:28;101954.69;;;11.46;93.14
54248;BME280;40161;39.768;2.722;2024-03-06T09:38:54;101920.00;;;11.29;90.42
54248;BME280;40161;39.768;2.722;2024-03-06T09:41:21;101935.72;;;11.53;87.72
54248;BME280;40161;39.768;2.722;2024-03-06T09:43:47;101918.06;;;11.54;86.71
54248;BME280;40161;39.768;2.722;2024-03-06T09:46:13;101930.44;;;11.72;85.72
54248;BME280;40161;39.768;2.722;2024-03-06T09:48:57;101950.75;;;12.04;83.87
54248;BME280;40161;39.768;2.722;2024-03-06T09:51:24;101939.38;;;12.18;78.98
54248;BME280;40161;39.768;2.722;2024-03-06T09:53:50;101971.66;;;12.33;79.93
54248;BME280;40161;39.768;2.722;2024-03-06T09:56:17;101961.44;;;12.34;79.86
54248;BME280;40161;39.768;2.722;2024-03-06T09:58:45;101962.56;;;12.45;78.45
54248;BME280;40161;39.768;2.722;2024-03-06T10:01:12;101938.03;;;12.40;75.75
54248;BME280;40161;39.768;2.722;2024-03-06T10:03:38;101935.44;;;12.59;71.88
54248;BME280;40161;39.768;2.722;2024-03-06T10:06:07;101883.31;;;12.39;71.20
54248;BME280;40161;39.768;2.722;2024-03-06T10:08:33;101922.31;;;12.69;69.71
54248;BME280;40161;39.768;2.722;2024-03-06T10:10:59;101949.78;;;13.09;68.69
54248;BME280;40161;39.768;2.722;2024-03-06T10:13:25;101939.22;;;13.11;66.58
54248;BME280;40161;39.768;2.722;2024-03-06T10:16:04;101935.00;;;13.17;64.53
54248;BME280;40161;39.768;2.722;2024-03-06T10:18:37;101941.66;;;13.28;64.85
54248;BME280;40161;39.768;2.722;2024-03-06T10:21:04;101938.19;;;13.47;65.28
54248;BME280;40161;39.768;2.722;2024-03-06T10:23:31;101935.34;;;13.60;62.38
54248;BME280;40161;39.768;2.722;2024-03-06T10:25:57;101927.22;;;13.51;63.14
54248;BME280;40161;39.768;2.722;2024-03-06T10:28:23;101931.03;;;13.62;62.91
54248;BME280;40161;39.768;2.722;2024-03-06T10:30:50;101938.94;;;13.80;62.59
54248;BME280;40161;39.768;2.722;2024-03-06T10:33:17;101928.66;;;13.76;63.89
54248;BME280;40161;39.768;2.722;2024-03-06T10:35:45;101943.09;;;13.89;65.15
54248;BME280;40161;39.768;2.722;2024-03-06T10:38:14;101943.19;;;13.93;64.95
54248;BME280;40161;39.768;2.722;2024-03-06T10:40:41;101908.41;;;13.88;63.23
54248;BME280;40161;39.768;2.722;2024-03-06T10:43:08;101936.94;;;14.12;63.02
54248;BME280;40161;39.768;2.722;2024-03-06T10:48:08;101930.59;;;14.11;62.05
54248;BME280;40161;39.768;2.722;2024-03-06T10:50:39;101926.75;;;14.16;64.16
54248;BME280;40161;39.768;2.722;2024-03-06T10:53:08;101933.44;;;14.34;62.43
54248;BME280;40161;39.768;2.722;2024-03-06T10:55:36;101936.09;;;14.46;61.95
54248;BME280;40161;39.768;2.722;2024-03-06T10:58:07;101891.31;;;14.18;62.48
54248;BME280;40161;39.768;2.722;2024-03-06T11:00:45;101946.56;;;14.57;62.39
54248;BME280;40161;39.768;2.722;2024-03-06T11:03:15;101927.53;;;14.52;63.41
54248;BME280;40161;39.768;2.722;2024-03-06T11:05:45;101910.22;;;14.35;61.46
54248;BME280;40161;39.768;2.722;2024-03-06T11:08:13;101916.69;;;14.43;60.93
54248;BME280;40161;39.768;2.722;2024-03-06T11:10:43;101923.06;;;14.47;60.82
54248;BME280;40161;39.768;2.722;2024-03-06T11:13:23;101925.59;;;14.52;62.28
54248;BME280;40161;39.768;2.722;2024-03-06T11:15:57;101917.00;;;14.57;61.93
54248;BME280;40161;39.768;2.722;2024-03-06T11:23:30;101919.28;;;14.75;63.65
54248;BME280;40161;39.768;2.722;2024-03-06T11:26:06;101933.81;;;14.91;63.72
54248;BME280;40161;39.768;2.722;2024-03-06T11:28:33;101912.66;;;14.79;63.18
54248;BME280;40161;39.768;2.722;2024-03-06T11:33:38;101924.13;;;15.01;65.68
54248;BME280;40161;39.768;2.722;2024-03-06T11:36:27;101924.13;;;15.01;67.96
54248;BME280;40161;39.768;2.722;2024-03-06T11:39:02;101911.41;;;14.96;68.51
54248;BME280;40161;39.768;2.722;2024-03-06T11:41:47;101905.53;;;14.98;69.46
54248;BME280;40161;39.768;2.722;2024-03-06T11:44:21;101896.84;;;14.99;71.21
54248;BME280;40161;39.768;2.722;2024-03-06T11:46:48;101887.97;;;14.90;72.39
54248;BME280;40161;39.768;2.722;2024-03-06T11:49:22;101878.16;;;14.92;74.07
54248;BME280;40161;39.768;2.722;2024-03-06T11:51:50;101855.88;;;14.82;75.41
54248;BME280;40161;39.768;2.722;2024-03-06T11:54:16;101887.72;;;15.18;78.87
54248;BME280;40161;39.768;2.722;2024-03-06T11:56:50;101900.19;;;15.31;79.88
54248;BME280;40161;39.768;2.722;2024-03-06T11:59:27;101888.28;;;15.31;82.32
54248;BME280;40161;39.768;2.722;2024-03-06T12:01:56;101881.38;;;15.17;82.62
54248;BME280;40161;39.768;2.722;2024-03-06T12:04:22;101883.88;;;15.26;82.70
54248;BME280;40161;39.768;2.722;2024-03-06T12:06:49;101890.59;;;15.25;83.23
54248;BME280;40161;39.768;2.722;2024-03-06T12:09:15;101867.84;;;15.12;82.77
54248;BME280;40161;39.768;2.722;2024-03-06T12:11:41;101893.34;;;15.25;84.35
54248;BME280;40161;39.768;2.722;2024-03-06T12:14:20;101854.88;;;15.16;84.44
54248;BME280;40161;39.768;2.722;2024-03-06T12:16:55;101884.84;;;15.37;83.68
54248;BME280;40161;39.768;2.722;2024-03-06T12:19:42;101867.50;;;15.40;84.06
54248;BME280;40161;39.768;2.722;2024-03-06T12:22:10;101829.88;;;15.09;83.77
54248;BME280;40161;39.768;2.722;2024-03-06T12:24:36;101861.94;;;15.37;83.28
54248;BME280;40161;39.768;2.722;2024-03-06T12:27:06;101873.03;;;15.40;81.54
54248;BME280;40161;39.768;2.722;2024-03-06T12:29:34;101835.47;;;15.13;80.00
54248;BME280;40161;39.768;2.722;2024-03-06T12:32:02;101864.22;;;15.31;81.29
54248;BME280;40161;39.768;2.722;2024-03-06T12:34:29;101848.00;;;15.30;81.17
54248;BME280;40161;39.768;2.722;2024-03-06T12:37:10;101849.63;;;15.34;84.25
54248;BME280;40161;39.768;2.722;2024-03-06T12:39:36;101827.50;;;15.34;85.16
54248;BME280;40161;39.768;2.722;2024-03-06T12:42:02;101801.44;;;15.09;83.00
54248;BME280;40161;39.768;2.722;2024-03-06T12:44:27;101809.16;;;15.23;84.83
54248;BME280;40161;39.768;2.722;2024-03-06T12:46:53;101832.63;;;15.32;85.42
54248;BME280;40161;39.768;2.722;2024-03-06T12:49:19;101813.47;;;15.20;85.85
54248;BME280;40161;39.768;2.722;2024-03-06T12:51:45;101823.53;;;15.32;84.81
54248;BME280;40161;39.768;2.722;2024-03-06T12:54:10;101793.31;;;15.19;86.21
54248;BME280;40161;39.768;2.722;2024-03-06T12:56:36;101802.16;;;15.29;87.32
54248;BME280;40161;39.768;2.722;2024-03-06T12:59:01;101810.50;;;15.32;86.38
54248;BME280;40161;39.768;2.722;2024-03-06T13:01:28;101807.34;;;15.34;86.07